Time;durP1;ratioP1;P1;durP2;ratioP2;P2;SDS_P1;SDS_P2;PMS_P1;PMS_P2;Temp;Humidity;BMP_temperature;BMP_pressure;BME280_temperature;BME280_humidity;BME280_pressure;Samples;Min_cycle;Max_cycle;Signal;HPM_P1;HPM_P2
2023/01/19 00:00:14;;;;;;;;;;;19.00;31.30;;;;;;3054814;19;4530;-24
2023/01/19 00:01:14;;;;;;;;;;;19.00;31.40;;;;;;3055541;19;4525;-24
2023/01/19 00:02:15;;;;;;;;;;;19.00;31.50;;;;;;3055720;19;4735;-23
2023/01/19 00:03:16;;;;;;;;;;;19.00;31.50;;;;;;3055960;19;4538;-23
2023/01/19 00:04:17;;;;;;;;;;;19.10;31.50;;;;;;3055858;19;4409;-23
2023/01/19 00:05:18;;;;;;;;;;;19.10;31.40;;;;;;3055761;19;4517;-23
2023/01/19 00:06:18;;;;;;;;;;;19.10;31.30;;;;;;3054573;19;4628;-23
2023/01/19 00:07:19;;;;;;;;;;;19.10;31.30;;;;;;3055290;19;4638;-23
2023/01/19 00:08:19;;;;;;;;;;;19.20;31.20;;;;;;3054174;19;4381;-24
2023/01/19 00:09:22;;;;;;;;;;;19.20;31.30;;;;;;3054681;19;4561;-24
2023/01/19 00:10:22;;;;;;;;;;;19.20;31.70;;;;;;3055595;19;4562;-23
2023/01/19 00:11:23;;;;;;;;;;;19.20;31.20;;;;;;3055403;19;4564;-23
2023/01/19 00:12:24;;;;;;;;;;;19.20;31.30;;;;;;3055407;19;4383;-23
2023/01/19 00:13:24;;;;;;;;;;;19.20;31.20;;;;;;3055444;19;4503;-23
2023/01/19 00:14:25;;;;;;;;;;;19.20;31.20;;;;;;3054982;19;4497;-23
2023/01/19 00:15:26;;;;;;;;;;;19.20;31.20;;;;;;3055361;19;4578;-23
2023/01/19 00:16:26;;;;;;;;;;;19.20;31.20;;;;;;3055425;19;4502;-23
2023/01/19 00:17:27;;;;;;;;;;;19.20;31.20;;;;;;3055409;19;4539;-24
2023/01/19 00:18:28;;;;;;;;;;;19.20;31.30;;;;;;3054677;19;4576;-23
2023/01/19 00:19:28;;;;;;;;;;;19.20;31.20;;;;;;3054903;19;4554;-23
2023/01/19 00:20:31;;;;;;;;;;;19.20;31.20;;;;;;3055399;19;4524;-23
2023/01/19 00:21:32;;;;;;;;;;;19.10;31.20;;;;;;3055271;19;4376;-23
2023/01/19 00:22:32;;;;;;;;;;;19.10;31.30;;;;;;3055084;19;4377;-23
2023/01/19 00:23:33;;;;;;;;;;;19.10;31.30;;;;;;3055548;19;4583;-23
2023/01/19 00:24:34;;;;;;;;;;;19.10;31.30;;;;;;3055506;19;4508;-23
2023/01/19 00:25:41;;;;;;;;;;;19.00;31.30;;;;;;3055573;19;4749;-23
2023/01/19 00:26:41;;;;;;;;;;;19.00;31.40;;;;;;3055523;19;4569;-23
2023/01/19 00:27:48;;;;;;;;;;;19.00;31.30;;;;;;3055589;19;4488;-24
2023/01/19 00:28:49;;;;;;;;;;;19.00;31.30;;;;;;3055303;19;4509;-23
2023/01/19 00:29:49;;;;;;;;;;;19.00;31.20;;;;;;3055607;19;4512;-23
2023/01/19 00:30:51;;;;;;;;;;;19.00;31.20;;;;;;3054882;19;4584;-24
2023/01/19 00:31:51;;;;;;;;;;;19.00;31.40;;;;;;3054314;19;4590;-23
2023/01/19 00:32:52;;;;;;;;;;;19.00;31.40;;;;;;3055273;19;4512;-23
2023/01/19 00:33:53;;;;;;;;;;;19.10;31.40;;;;;;3054876;19;4647;-23
2023/01/19 00:34:53;;;;;;;;;;;19.00;31.40;;;;;;3055410;19;4499;-23
2023/01/19 00:35:54;;;;;;;;;;;19.10;31.30;;;;;;3055396;19;4486;-23
2023/01/19 00:36:54;;;;;;;;;;;19.10;31.40;;;;;;3054360;19;4491;-23
2023/01/19 00:37:58;;;;;;;;;;;19.10;31.30;;;;;;3054453;19;4552;-23
2023/01/19 00:38:59;;;;;;;;;;;19.10;31.30;;;;;;3054745;19;4354;-23
2023/01/19 00:40:00;;;;;;;;;;;19.10;31.30;;;;;;3055137;19;4598;-23
2023/01/19 00:41:00;;;;;;;;;;;19.10;31.30;;;;;;3054720;19;4548;-23
2023/01/19 00:43:20;;;;;;;;;;;19.10;31.90;;;;;;3052491;19;4473;-23
2023/01/19 00:44:21;;;;;;;;;;;19.10;31.20;;;;;;3055269;19;4594;-23
2023/01/19 00:45:22;;;;;;;;;;;19.10;31.20;;;;;;3054245;19;4538;-23
2023/01/19 00:46:25;;;;;;;;;;;19.10;31.30;;;;;;3054028;19;4754;-23
2023/01/19 00:47:26;;;;;;;;;;;19.10;31.20;;;;;;3054388;19;4554;-23
2023/01/19 00:48:27;;;;;;;;;;;19.10;31.30;;;;;;3054279;19;4633;-24
2023/01/19 00:49:27;;;;;;;;;;;19.00;31.20;;;;;;3055181;19;4508;-23
2023/01/19 00:50:29;;;;;;;;;;;19.10;31.30;;;;;;3054331;19;4537;-23
2023/01/19 00:51:29;;;;;;;;;;;19.10;31.40;;;;;;3054258;19;4636;-23
2023/01/19 00:52:30;;;;;;;;;;;19.00;31.40;;;;;;3054190;19;4366;-23
2023/01/19 00:53:31;;;;;;;;;;;19.00;31.40;;;;;;3053502;19;4568;-23
2023/01/19 00:54:32;;;;;;;;;;;19.00;31.40;;;;;;3055359;19;4754;-27
2023/01/19 00:55:32;;;;;;;;;;;18.90;31.40;;;;;;3054613;19;4720;-23
2023/01/19 00:56:34;;;;;;;;;;;19.00;31.50;;;;;;3054028;19;4570;-22
2023/01/19 00:57:34;;;;;;;;;;;18.90;31.50;;;;;;3054425;19;4562;-24
2023/01/19 00:58:35;;;;;;;;;;;18.90;31.40;;;;;;3055125;19;4603;-23
2023/01/19 00:59:36;;;;;;;;;;;18.90;31.40;;;;;;3054055;19;4550;-23
2023/01/19 01:00:36;;;;;;;;;;;18.90;31.40;;;;;;3055076;19;4547;-23
2023/01/19 01:01:37;;;;;;;;;;;18.90;31.40;;;;;;3053929;19;4522;-23
2023/01/19 01:02:38;;;;;;;;;;;18.90;31.50;;;;;;3055250;19;4704;-23
2023/01/19 01:03:39;;;;;;;;;;;18.90;31.40;;;;;;3054928;19;4689;-23
2023/01/19 01:04:40;;;;;;;;;;;18.90;31.50;;;;;;3054997;19;4541;-23
2023/01/19 01:05:41;;;;;;;;;;;19.00;31.60;;;;;;3054777;19;4544;-23
2023/01/19 01:06:41;;;;;;;;;;;19.00;31.50;;;;;;3054268;19;4765;-23
2023/01/19 01:07:47;;;;;;;;;;;19.00;31.30;;;;;;3054942;19;4557;-23
2023/01/19 01:08:47;;;;;;;;;;;19.00;31.30;;;;;;3053859;19;4459;-23
2023/01/19 01:09:48;;;;;;;;;;;19.10;31.30;;;;;;3054326;19;4665;-23
2023/01/19 01:10:49;;;;;;;;;;;19.10;31.40;;;;;;3054591;19;4609;-23
2023/01/19 01:11:50;;;;;;;;;;;19.10;31.30;;;;;;3054760;19;4364;-23
2023/01/19 01:12:50;;;;;;;;;;;19.10;31.40;;;;;;3054717;19;4563;-23
2023/01/19 01:13:51;;;;;;;;;;;19.10;31.70;;;;;;3054442;19;4551;-24
2023/01/19 01:14:52;;;;;;;;;;;19.10;31.40;;;;;;3054628;19;4592;-23
2023/01/19 01:15:53;;;;;;;;;;;19.00;31.30;;;;;;3054423;19;4618;-23
2023/01/19 01:16:53;;;;;;;;;;;19.00;31.30;;;;;;3054199;19;4503;-23
2023/01/19 01:17:54;;;;;;;;;;;19.00;31.30;;;;;;3053888;19;4477;-23
2023/01/19 01:18:55;;;;;;;;;;;19.00;31.40;;;;;;3054347;19;4492;-23
2023/01/19 01:19:56;;;;;;;;;;;19.00;31.40;;;;;;3054759;19;4509;-23
2023/01/19 01:21:00;;;;;;;;;;;19.00;31.40;;;;;;3054554;19;4461;-24
2023/01/19 01:22:01;;;;;;;;;;;19.00;31.40;;;;;;3052959;19;4466;-23
2023/01/19 01:23:02;;;;;;;;;;;19.00;31.40;;;;;;3053797;19;4452;-23
2023/01/19 01:24:03;;;;;;;;;;;19.00;31.40;;;;;;3054554;19;4465;-23
2023/01/19 01:25:04;;;;;;;;;;;18.90;31.40;;;;;;3054046;19;4514;-23
2023/01/19 01:26:04;;;;;;;;;;;18.90;31.60;;;;;;3053976;19;4634;-23
2023/01/19 01:27:06;;;;;;;;;;;18.90;31.50;;;;;;3054472;19;4334;-24
2023/01/19 01:28:07;;;;;;;;;;;18.90;31.50;;;;;;3053236;19;4678;-25
2023/01/19 01:29:08;;;;;;;;;;;18.80;31.30;;;;;;3054131;19;4503;-23
2023/01/19 01:30:10;;;;;;;;;;;18.80;31.30;;;;;;3054200;19;4504;-23
2023/01/19 01:31:11;;;;;;;;;;;18.80;31.40;;;;;;3054484;19;4564;-23
2023/01/19 01:32:15;;;;;;;;;;;18.80;31.30;;;;;;3054510;19;4505;-24
2023/01/19 01:33:16;;;;;;;;;;;18.80;31.40;;;;;;3053922;19;4536;-23
2023/01/19 01:34:16;;;;;;;;;;;18.90;31.50;;;;;;3054231;19;4573;-23
2023/01/19 01:35:17;;;;;;;;;;;18.90;31.50;;;;;;3053204;19;4547;-23
2023/01/19 01:36:18;;;;;;;;;;;18.90;31.50;;;;;;3054452;19;4508;-23
2023/01/19 01:37:18;;;;;;;;;;;18.90;31.30;;;;;;3054268;19;4506;-23
2023/01/19 01:38:19;;;;;;;;;;;18.90;31.40;;;;;;3053692;19;4540;-23
2023/01/19 01:39:21;;;;;;;;;;;19.00;31.30;;;;;;3054457;19;4524;-23
2023/01/19 01:40:21;;;;;;;;;;;18.90;31.30;;;;;;3054392;19;4519;-23
2023/01/19 01:41:22;;;;;;;;;;;19.00;31.40;;;;;;3054717;19;4531;-24
2023/01/19 01:42:27;;;;;;;;;;;18.90;31.30;;;;;;3054227;19;4638;-23
2023/01/19 01:43:44;;;;;;;;;;;18.90;31.30;;;;;;3053657;19;4689;-24
2023/01/19 01:44:58;;;;;;;;;;;18.90;31.40;;;;;;3054794;19;4540;-23
2023/01/19 01:45:59;;;;;;;;;;;18.90;31.40;;;;;;3054269;19;4498;-23
2023/01/19 01:46:59;;;;;;;;;;;18.90;31.40;;;;;;3054562;19;4663;-23
2023/01/19 01:48:21;;;;;;;;;;;18.90;31.40;;;;;;3053209;19;4315;-23
2023/01/19 01:49:21;;;;;;;;;;;18.90;31.50;;;;;;2950903;19;2004148;-23
2023/01/19 01:50:26;;;;;;;;;;;18.80;31.30;;;;;;3053808;19;4544;-23
2023/01/19 01:51:41;;;;;;;;;;;18.80;31.30;;;;;;3052963;19;4540;-23
2023/01/19 01:52:48;;;;;;;;;;;18.80;31.30;;;;;;3053733;19;4400;-23
2023/01/19 01:53:54;;;;;;;;;;;18.80;31.30;;;;;;3053507;19;4648;-23
2023/01/19 01:54:55;;;;;;;;;;;18.80;31.40;;;;;;3054681;19;4487;-24
2023/01/19 01:55:56;;;;;;;;;;;18.80;31.40;;;;;;3056000;19;4509;-23
2023/01/19 01:56:59;;;;;;;;;;;18.80;31.50;;;;;;3055936;19;4553;-23
2023/01/19 01:58:01;;;;;;;;;;;18.90;31.50;;;;;;3056578;19;4548;-23
2023/01/19 01:59:05;;;;;;;;;;;18.90;31.40;;;;;;3055900;19;4481;-22
2023/01/19 02:00:06;;;;;;;;;;;18.90;31.50;;;;;;3056042;19;4760;-23
2023/01/19 02:03:45;;;;;;;;;;;18.90;31.30;;;;;;3056105;19;4668;-23
2023/01/19 02:04:48;;;;;;;;;;;18.90;31.40;;;;;;3055913;19;4487;-23
2023/01/19 02:05:49;;;;;;;;;;;18.90;31.30;;;;;;3055607;19;4381;-23
2023/01/19 02:13:29;;;;;;;;;;;18.90;32.10;;;;;;3056466;19;4659;-23
2023/01/19 02:14:30;;;;;;;;;;;18.90;31.60;;;;;;3056000;19;4569;-23
2023/01/19 02:15:30;;;;;;;;;;;18.80;31.50;;;;;;3056702;19;4575;-23
2023/01/19 02:16:31;;;;;;;;;;;18.80;31.60;;;;;;3057124;19;4544;-23
2023/01/19 02:17:32;;;;;;;;;;;18.80;31.50;;;;;;3055757;19;4669;-23
2023/01/19 02:18:33;;;;;;;;;;;18.80;31.50;;;;;;3056948;19;4512;-23
2023/01/19 02:19:38;;;;;;;;;;;18.80;31.70;;;;;;3056013;19;4349;-23
2023/01/19 02:20:39;;;;;;;;;;;18.80;31.60;;;;;;3055971;19;4513;-23
2023/01/19 02:21:48;;;;;;;;;;;18.80;31.60;;;;;;3055531;19;4508;-23
2023/01/19 02:22:49;;;;;;;;;;;18.80;31.60;;;;;;3055134;19;4532;-24
2023/01/19 02:23:51;;;;;;;;;;;18.70;31.40;;;;;;3055714;19;4365;-23
2023/01/19 02:24:52;;;;;;;;;;;18.70;31.40;;;;;;3054833;19;4513;-23
2023/01/19 02:25:53;;;;;;;;;;;18.70;31.50;;;;;;3055618;19;4604;-23
2023/01/19 02:26:54;;;;;;;;;;;18.70;31.50;;;;;;3053951;19;4399;-23
2023/01/19 02:27:54;;;;;;;;;;;18.80;31.70;;;;;;3056651;19;4661;-23
2023/01/19 02:28:59;;;;;;;;;;;18.80;31.70;;;;;;3055545;19;4394;-23
2023/01/19 02:30:02;;;;;;;;;;;18.80;31.70;;;;;;3055866;19;4750;-23
2023/01/19 02:31:03;;;;;;;;;;;18.80;31.70;;;;;;3055579;19;4455;-23
2023/01/19 02:32:04;;;;;;;;;;;18.90;31.70;;;;;;3056428;19;4541;-23
2023/01/19 02:33:06;;;;;;;;;;;18.80;31.50;;;;;;3055369;19;4488;-21
2023/01/19 02:34:08;;;;;;;;;;;18.90;31.50;;;;;;3054359;19;4464;-21
2023/01/19 02:35:09;;;;;;;;;;;18.90;31.50;;;;;;3055504;19;4586;-21
2023/01/19 02:36:11;;;;;;;;;;;18.90;31.50;;;;;;3055262;19;959;-23
2023/01/19 02:37:12;;;;;;;;;;;18.90;31.40;;;;;;3055343;19;4493;-23
2023/01/19 02:38:13;;;;;;;;;;;18.90;31.40;;;;;;3054694;19;4594;-23
2023/01/19 02:39:13;;;;;;;;;;;18.90;31.40;;;;;;3054406;19;4544;-23
2023/01/19 02:40:15;;;;;;;;;;;18.90;31.50;;;;;;3055273;19;4535;-23
2023/01/19 02:41:18;;;;;;;;;;;18.90;31.50;;;;;;3055799;19;4651;-23
2023/01/19 02:42:48;;;;;;;;;;;18.90;31.60;;;;;;3055866;19;4653;-23
2023/01/19 02:43:49;;;;;;;;;;;18.90;31.50;;;;;;3054903;19;4384;-22
2023/01/19 02:44:49;;;;;;;;;;;18.80;31.60;;;;;;3054839;19;4498;-23
2023/01/19 02:45:50;;;;;;;;;;;18.80;31.60;;;;;;3052773;19;4363;-23
2023/01/19 02:46:53;;;;;;;;;;;18.80;31.60;;;;;;3054506;19;4818;-23
2023/01/19 02:47:53;;;;;;;;;;;18.80;31.60;;;;;;3056028;19;4514;-23
2023/01/19 02:49:00;;;;;;;;;;;18.70;31.40;;;;;;3056349;19;4465;-25
2023/01/19 02:50:01;;;;;;;;;;;18.80;31.60;;;;;;3054527;19;4633;-23
2023/01/19 02:51:31;;;;;;;;;;;18.80;31.60;;;;;;3056365;19;4558;-23
2023/01/19 02:52:32;;;;;;;;;;;18.70;31.70;;;;;;2951506;19;2017826;-23
2023/01/19 02:53:53;;;;;;;;;;;18.70;31.80;;;;;;3055262;19;4572;-23
2023/01/19 02:55:01;;;;;;;;;;;18.80;31.80;;;;;;3055387;19;4357;-23
2023/01/19 02:56:01;;;;;;;;;;;18.80;31.70;;;;;;3053823;19;4737;-23
2023/01/19 02:57:17;;;;;;;;;;;18.80;31.70;;;;;;3054557;19;4321;-23
2023/01/19 02:58:53;;;;;;;;;;;18.90;31.70;;;;;;2953643;19;2004307;-23
2023/01/19 03:00:09;;;;;;;;;;;18.90;31.60;;;;;;3055169;19;4348;-23
2023/01/19 03:01:19;;;;;;;;;;;18.90;31.70;;;;;;3055182;19;4064;-23
2023/01/19 03:02:45;;;;;;;;;;;18.90;31.60;;;;;;3054179;19;4468;-23
2023/01/19 03:04:08;;;;;;;;;;;18.90;31.70;;;;;;3055420;19;4557;-23
2023/01/19 03:05:18;;;;;;;;;;;18.90;31.70;;;;;;3054928;19;4580;-24
2023/01/19 03:06:36;;;;;;;;;;;18.90;31.60;;;;;;3054325;19;4579;-23
2023/01/19 03:07:49;;;;;;;;;;;18.90;31.60;;;;;;3055642;19;4602;-23
2023/01/19 03:09:16;;;;;;;;;;;18.90;31.70;;;;;;3054778;19;4666;-23
2023/01/19 03:10:22;;;;;;;;;;;18.90;31.80;;;;;;2951448;19;2004372;-23
2023/01/19 03:11:24;;;;;;;;;;;18.90;31.80;;;;;;3055769;19;4546;-23
2023/01/19 03:13:11;;;;;;;;;;;18.80;31.80;;;;;;3055542;19;4540;-23
2023/01/19 03:14:14;;;;;;;;;;;18.80;31.70;;;;;;3054087;19;4535;-23
2023/01/19 03:15:21;;;;;;;;;;;18.80;31.90;;;;;;3054085;19;4550;-23
2023/01/19 03:16:34;;;;;;;;;;;18.80;31.90;;;;;;3055649;19;4512;-23
2023/01/19 03:17:35;;;;;;;;;;;18.80;31.90;;;;;;3054653;19;4574;-23
2023/01/19 03:18:36;;;;;;;;;;;18.70;31.90;;;;;;3055554;19;4423;-23
2023/01/19 03:19:38;;;;;;;;;;;18.70;32.00;;;;;;3054896;19;4529;-23
2023/01/19 03:20:39;;;;;;;;;;;18.70;32.60;;;;;;3055037;19;4409;-23
2023/01/19 03:21:41;;;;;;;;;;;18.70;31.90;;;;;;3054189;19;4600;-23
2023/01/19 03:22:43;;;;;;;;;;;18.70;31.90;;;;;;3055088;19;4568;-23
2023/01/19 03:23:44;;;;;;;;;;;18.70;31.90;;;;;;3055435;19;4525;-24
2023/01/19 03:24:45;;;;;;;;;;;18.70;31.90;;;;;;3054318;19;4534;-23
2023/01/19 03:25:46;;;;;;;;;;;18.70;31.90;;;;;;3054241;19;4553;-23
2023/01/19 03:26:48;;;;;;;;;;;18.70;32.00;;;;;;3055646;19;4532;-23
2023/01/19 03:27:50;;;;;;;;;;;18.70;32.10;;;;;;3053440;19;4578;-23
2023/01/19 03:28:51;;;;;;;;;;;18.70;32.10;;;;;;3054403;19;4544;-23
2023/01/19 03:29:54;;;;;;;;;;;18.70;32.10;;;;;;3054688;19;4708;-23
2023/01/19 03:31:00;;;;;;;;;;;18.80;32.00;;;;;;3055245;19;4448;-23
2023/01/19 03:32:03;;;;;;;;;;;18.80;31.90;;;;;;3054583;19;4537;-23
2023/01/19 03:33:19;;;;;;;;;;;18.80;31.90;;;;;;3055601;19;4533;-23
2023/01/19 03:34:22;;;;;;;;;;;18.80;31.80;;;;;;2952182;19;2004038;-24
2023/01/19 03:35:24;;;;;;;;;;;18.80;31.90;;;;;;3054570;19;4560;-23
2023/01/19 03:36:28;;;;;;;;;;;18.80;31.80;;;;;;3055315;19;4553;-24
2023/01/19 03:37:29;;;;;;;;;;;18.80;31.90;;;;;;3055179;19;4721;-24
2023/01/19 03:38:32;;;;;;;;;;;18.80;31.90;;;;;;3054391;19;4537;-23
2023/01/19 03:39:33;;;;;;;;;;;18.80;31.90;;;;;;3055533;19;4548;-23
2023/01/19 03:40:34;;;;;;;;;;;18.80;31.90;;;;;;3054889;19;4571;-23
2023/01/19 03:41:35;;;;;;;;;;;18.80;31.90;;;;;;3055216;19;4541;-23
2023/01/19 03:42:35;;;;;;;;;;;18.70;31.90;;;;;;3055380;19;4403;-23
2023/01/19 03:43:37;;;;;;;;;;;18.70;31.90;;;;;;3054313;19;4509;-23
2023/01/19 03:44:39;;;;;;;;;;;18.70;32.00;;;;;;3055176;19;4545;-23
2023/01/19 03:45:39;;;;;;;;;;;18.70;31.90;;;;;;3055131;19;4554;-23
2023/01/19 03:46:40;;;;;;;;;;;18.70;32.00;;;;;;3054719;19;4651;-23
2023/01/19 03:47:41;;;;;;;;;;;18.70;32.00;;;;;;3055374;19;4539;-23
2023/01/19 03:48:41;;;;;;;;;;;18.60;31.90;;;;;;3053502;19;4593;-23
2023/01/19 03:49:43;;;;;;;;;;;18.60;31.90;;;;;;3054955;19;4564;-23
2023/01/19 03:50:43;;;;;;;;;;;18.60;32.00;;;;;;3054248;19;4520;-23
2023/01/19 03:51:44;;;;;;;;;;;18.60;32.00;;;;;;3054861;19;4539;-23
2023/01/19 03:52:44;;;;;;;;;;;18.60;32.10;;;;;;3054989;19;4531;-23
2023/01/19 03:53:45;;;;;;;;;;;18.60;32.20;;;;;;3054677;19;4537;-23
2023/01/19 03:54:47;;;;;;;;;;;18.60;32.10;;;;;;3055980;19;4556;-23
2023/01/19 03:55:49;;;;;;;;;;;18.70;32.10;;;;;;3056036;19;4558;-24
2023/01/19 03:56:51;;;;;;;;;;;18.70;32.10;;;;;;3054419;19;4577;-22
2023/01/19 03:57:52;;;;;;;;;;;18.70;32.00;;;;;;3055047;19;4516;-24
2023/01/19 03:58:52;;;;;;;;;;;18.80;32.20;;;;;;3055642;19;4535;-23
2023/01/19 03:59:53;;;;;;;;;;;18.80;32.00;;;;;;3055451;19;4543;-23
2023/01/19 04:00:54;;;;;;;;;;;18.70;31.90;;;;;;3056081;19;4452;-23
2023/01/19 04:01:54;;;;;;;;;;;18.80;31.90;;;;;;3055509;19;5065;-24
2023/01/19 04:02:55;;;;;;;;;;;18.70;31.90;;;;;;3055543;19;4383;-23
2023/01/19 04:03:56;;;;;;;;;;;18.80;31.90;;;;;;3055755;19;4497;-23
2023/01/19 04:04:56;;;;;;;;;;;18.80;31.90;;;;;;3055297;19;4537;-23
2023/01/19 04:05:57;;;;;;;;;;;18.80;31.90;;;;;;3055591;19;4488;-23
2023/01/19 04:06:58;;;;;;;;;;;18.70;31.90;;;;;;3055961;19;4534;-23
2023/01/19 04:07:59;;;;;;;;;;;18.70;32.00;;;;;;3055450;19;4456;-24
2023/01/19 04:09:00;;;;;;;;;;;18.70;32.00;;;;;;3055666;19;4519;-23
2023/01/19 04:10:00;;;;;;;;;;;18.70;32.00;;;;;;3055272;19;4476;-23
2023/01/19 04:11:01;;;;;;;;;;;18.70;32.00;;;;;;3055604;19;4443;-23
2023/01/19 04:12:02;;;;;;;;;;;18.70;32.00;;;;;;3055561;19;4569;-24
2023/01/19 04:13:03;;;;;;;;;;;18.70;32.10;;;;;;3055342;19;4518;-23
2023/01/19 04:14:04;;;;;;;;;;;18.70;32.00;;;;;;3055960;19;4336;-23
2023/01/19 04:15:05;;;;;;;;;;;18.70;31.90;;;;;;3055312;19;4643;-23
2023/01/19 04:16:06;;;;;;;;;;;18.60;31.90;;;;;;3055734;19;4425;-23
2023/01/19 04:17:08;;;;;;;;;;;18.60;31.90;;;;;;3055031;19;4483;-24
2023/01/19 04:18:08;;;;;;;;;;;18.60;31.90;;;;;;3052930;19;4638;-23
2023/01/19 04:19:09;;;;;;;;;;;18.60;32.00;;;;;;3055083;19;4489;-24
2023/01/19 04:20:10;;;;;;;;;;;18.60;32.10;;;;;;3055393;19;4543;-23
2023/01/19 04:21:10;;;;;;;;;;;18.60;32.10;;;;;;3055191;19;4657;-23
2023/01/19 04:22:11;;;;;;;;;;;18.70;32.10;;;;;;3054433;19;4594;-24
2023/01/19 04:23:11;;;;;;;;;;;18.70;32.00;;;;;;3055173;19;4530;-24
2023/01/19 04:24:12;;;;;;;;;;;18.70;32.00;;;;;;3055848;19;1055;-23
2023/01/19 04:25:13;;;;;;;;;;;18.70;31.90;;;;;;3055010;19;4504;-24
2023/01/19 04:26:13;;;;;;;;;;;18.70;32.00;;;;;;3055063;19;4780;-23
2023/01/19 04:27:15;;;;;;;;;;;18.70;31.90;;;;;;3055332;19;4570;-24
2023/01/19 04:28:15;;;;;;;;;;;18.80;31.90;;;;;;3054585;19;4412;-23
2023/01/19 04:29:16;;;;;;;;;;;18.70;31.80;;;;;;3055458;19;4490;-23
2023/01/19 04:30:17;;;;;;;;;;;18.70;31.80;;;;;;3055181;19;4524;-23
2023/01/19 04:31:18;;;;;;;;;;;18.70;31.90;;;;;;3054785;19;4570;-23
2023/01/19 04:32:18;;;;;;;;;;;18.70;31.90;;;;;;3055110;19;4545;-23
2023/01/19 04:33:19;;;;;;;;;;;18.70;31.90;;;;;;3054848;19;4536;-23
2023/01/19 04:34:20;;;;;;;;;;;18.70;31.90;;;;;;3055234;19;4549;-24
2023/01/19 04:35:21;;;;;;;;;;;18.70;31.80;;;;;;3055259;19;4645;-23
2023/01/19 04:36:21;;;;;;;;;;;18.70;31.80;;;;;;3054120;19;4561;-23
2023/01/19 04:37:22;;;;;;;;;;;18.60;31.80;;;;;;3055159;19;4584;-23
2023/01/19 04:38:23;;;;;;;;;;;18.60;31.80;;;;;;3054225;19;4526;-23
2023/01/19 04:39:24;;;;;;;;;;;18.60;31.90;;;;;;3055296;19;4538;-23
2023/01/19 04:40:25;;;;;;;;;;;18.50;31.90;;;;;;3051305;19;4429;-23
2023/01/19 04:41:25;;;;;;;;;;;18.50;31.90;;;;;;3054630;19;4592;-23
2023/01/19 04:42:26;;;;;;;;;;;18.50;31.90;;;;;;3054020;19;4744;-23
2023/01/19 04:43:27;;;;;;;;;;;18.50;31.90;;;;;;3053317;19;4384;-23
2023/01/19 04:44:27;;;;;;;;;;;18.50;32.00;;;;;;3055329;19;4541;-23
2023/01/19 04:45:28;;;;;;;;;;;18.50;31.90;;;;;;3055260;19;4590;-23
2023/01/19 04:46:29;;;;;;;;;;;18.60;31.90;;;;;;3053799;19;4457;-23
2023/01/19 04:47:30;;;;;;;;;;;18.60;31.90;;;;;;3055269;19;4506;-23
2023/01/19 04:48:30;;;;;;;;;;;18.60;31.80;;;;;;3052951;19;4472;-23
2023/01/19 04:49:31;;;;;;;;;;;18.60;31.80;;;;;;3054261;19;4537;-23
2023/01/19 04:50:32;;;;;;;;;;;18.60;31.80;;;;;;3053850;19;4552;-24
2023/01/19 04:51:33;;;;;;;;;;;18.70;31.80;;;;;;3054516;19;4539;-23
2023/01/19 04:52:33;;;;;;;;;;;18.70;31.80;;;;;;3054807;19;4520;-23
2023/01/19 04:53:34;;;;;;;;;;;18.70;31.60;;;;;;3054474;19;4562;-23
2023/01/19 04:54:35;;;;;;;;;;;18.70;31.50;;;;;;3054456;19;4341;-23
2023/01/19 04:55:36;;;;;;;;;;;18.70;31.60;;;;;;3054478;19;4514;-23
2023/01/19 04:56:37;;;;;;;;;;;18.60;31.50;;;;;;3054685;19;4364;-23
2023/01/19 04:57:38;;;;;;;;;;;18.70;31.70;;;;;;3054898;19;4550;-23
2023/01/19 04:58:38;;;;;;;;;;;18.70;31.70;;;;;;3054790;19;4539;-23
2023/01/19 04:59:39;;;;;;;;;;;18.70;31.70;;;;;;3054787;19;4517;-23
2023/01/19 05:00:40;;;;;;;;;;;18.70;31.60;;;;;;3054298;19;4543;-23
2023/01/19 05:01:41;;;;;;;;;;;18.70;31.50;;;;;;3054687;19;4540;-23
2023/01/19 05:02:43;;;;;;;;;;;18.70;32.20;;;;;;3054540;19;4494;-23
2023/01/19 05:03:44;;;;;;;;;;;18.80;31.60;;;;;;3054887;19;4513;-24
2023/01/19 05:04:45;;;;;;;;;;;18.80;31.50;;;;;;3054409;19;4505;-23
2023/01/19 05:05:46;;;;;;;;;;;18.80;31.50;;;;;;3055042;19;4525;-23
2023/01/19 05:06:46;;;;;;;;;;;18.80;31.50;;;;;;3053178;19;4721;-23
2023/01/19 05:07:47;;;;;;;;;;;18.80;31.50;;;;;;3054732;19;4534;-23
2023/01/19 05:08:47;;;;;;;;;;;18.80;31.50;;;;;;3054364;19;4510;-23
2023/01/19 05:09:48;;;;;;;;;;;18.80;31.50;;;;;;3054624;19;4670;-23
2023/01/19 05:10:49;;;;;;;;;;;18.80;31.50;;;;;;3054814;19;4587;-23
2023/01/19 05:11:49;;;;;;;;;;;18.90;31.50;;;;;;3054665;19;4747;-23
2023/01/19 05:12:50;;;;;;;;;;;18.80;31.40;;;;;;3054876;19;4498;-23
2023/01/19 05:13:51;;;;;;;;;;;18.80;31.50;;;;;;3054176;19;4361;-23
2023/01/19 05:14:52;;;;;;;;;;;18.80;31.50;;;;;;3054944;19;4405;-23
2023/01/19 05:15:53;;;;;;;;;;;18.80;31.40;;;;;;3054067;19;4616;-23
2023/01/19 05:16:54;;;;;;;;;;;18.80;31.40;;;;;;3055103;19;4489;-23
2023/01/19 05:17:56;;;;;;;;;;;18.80;31.50;;;;;;3053931;19;4588;-23
2023/01/19 05:18:57;;;;;;;;;;;18.80;31.40;;;;;;3054419;19;4475;-23
2023/01/19 05:19:58;;;;;;;;;;;18.80;31.60;;;;;;3054645;19;4495;-22
2023/01/19 05:20:58;;;;;;;;;;;18.80;31.60;;;;;;3054038;19;4478;-23
2023/01/19 05:21:59;;;;;;;;;;;18.70;31.70;;;;;;3052954;19;4534;-24
2023/01/19 05:23:00;;;;;;;;;;;18.80;31.80;;;;;;3053301;19;4464;-23
2023/01/19 05:24:00;;;;;;;;;;;18.80;31.80;;;;;;3053106;19;4365;-23
2023/01/19 05:25:01;;;;;;;;;;;18.80;31.90;;;;;;3054771;19;4506;-24
2023/01/19 05:26:03;;;;;;;;;;;18.80;31.90;;;;;;3053737;19;4504;-23
2023/01/19 05:27:03;;;;;;;;;;;18.90;32.00;;;;;;3054988;19;4494;-23
2023/01/19 05:28:04;;;;;;;;;;;19.00;31.90;;;;;;3053857;19;4508;-23
2023/01/19 05:29:05;;;;;;;;;;;19.00;31.80;;;;;;3054887;19;4332;-23
2023/01/19 05:30:06;;;;;;;;;;;19.10;31.80;;;;;;3056632;19;4587;-25
2023/01/19 05:31:06;;;;;;;;;;;19.10;31.70;;;;;;3056272;19;4372;-23
2023/01/19 05:32:07;;;;;;;;;;;19.10;31.60;;;;;;3057270;19;4545;-24
2023/01/19 05:33:08;;;;;;;;;;;19.20;31.70;;;;;;3057136;19;4569;-24
2023/01/19 05:34:10;;;;;;;;;;;19.20;31.70;;;;;;3056628;19;4531;-23
2023/01/19 05:35:12;;;;;;;;;;;19.20;31.60;;;;;;3057973;19;1182;-23
2023/01/19 05:36:13;;;;;;;;;;;19.20;31.60;;;;;;3057532;19;4494;-23
2023/01/19 05:37:13;;;;;;;;;;;19.20;31.60;;;;;;3057180;19;4544;-24
2023/01/19 05:38:14;;;;;;;;;;;19.20;31.60;;;;;;3057223;19;4401;-24
2023/01/19 05:39:14;;;;;;;;;;;19.20;31.60;;;;;;3056861;19;4514;-24
2023/01/19 05:40:15;;;;;;;;;;;19.10;31.70;;;;;;3056958;19;4683;-23
2023/01/19 05:41:16;;;;;;;;;;;19.10;31.70;;;;;;3057868;19;4552;-23
2023/01/19 05:42:17;;;;;;;;;;;19.10;31.80;;;;;;3057394;19;4586;-24
2023/01/19 05:43:17;;;;;;;;;;;19.20;31.80;;;;;;3055805;19;4584;-23
2023/01/19 05:44:18;;;;;;;;;;;19.20;31.90;;;;;;3056823;19;4709;-23
2023/01/19 05:45:19;;;;;;;;;;;19.20;31.80;;;;;;3056877;19;4493;-23
2023/01/19 05:46:19;;;;;;;;;;;19.30;31.80;;;;;;3057336;19;4698;-23
2023/01/19 05:47:20;;;;;;;;;;;19.30;31.80;;;;;;3056914;19;4399;-24
2023/01/19 05:48:21;;;;;;;;;;;19.30;31.80;;;;;;3056156;19;4550;-23
2023/01/19 05:49:21;;;;;;;;;;;19.30;31.70;;;;;;3057308;19;4528;-24
2023/01/19 05:50:22;;;;;;;;;;;19.30;31.70;;;;;;3057601;19;4620;-23
2023/01/19 05:51:23;;;;;;;;;;;19.30;32.40;;;;;;3056445;19;4608;-23
2023/01/19 05:52:23;;;;;;;;;;;19.30;31.70;;;;;;3057645;19;4404;-23
2023/01/19 05:53:24;;;;;;;;;;;19.30;31.70;;;;;;3056525;19;4489;-23
2023/01/19 05:54:25;;;;;;;;;;;19.30;31.70;;;;;;3057418;19;4629;-23
2023/01/19 05:55:25;;;;;;;;;;;19.30;31.70;;;;;;3056644;19;4611;-23
2023/01/19 05:56:26;;;;;;;;;;;19.30;31.70;;;;;;3057330;19;4577;-24
2023/01/19 05:57:27;;;;;;;;;;;19.30;31.80;;;;;;3057517;19;4563;-23
2023/01/19 05:58:27;;;;;;;;;;;19.30;31.90;;;;;;3057577;19;4555;-23
2023/01/19 05:59:28;;;;;;;;;;;19.30;31.90;;;;;;3056508;19;4509;-23
2023/01/19 06:00:29;;;;;;;;;;;19.20;31.80;;;;;;3056509;19;4565;-23
2023/01/19 06:01:29;;;;;;;;;;;19.20;31.80;;;;;;3056586;19;4352;-23
2023/01/19 06:02:30;;;;;;;;;;;19.20;31.80;;;;;;3057188;19;4522;-23
2023/01/19 06:03:31;;;;;;;;;;;19.20;31.90;;;;;;3055401;19;4497;-23
2023/01/19 06:04:32;;;;;;;;;;;19.20;31.90;;;;;;3057096;19;4655;-23
2023/01/19 06:05:34;;;;;;;;;;;19.20;31.80;;;;;;3057471;19;4526;-23
2023/01/19 06:06:35;;;;;;;;;;;19.10;31.80;;;;;;3056781;19;4496;-23
2023/01/19 06:07:35;;;;;;;;;;;19.10;31.90;;;;;;3056398;19;4621;-23
2023/01/19 06:08:36;;;;;;;;;;;19.10;32.00;;;;;;3056964;19;4517;-24
2023/01/19 06:09:37;;;;;;;;;;;19.10;32.70;;;;;;3056653;19;4651;-23
2023/01/19 06:10:37;;;;;;;;;;;19.10;32.20;;;;;;3057233;19;4553;-23
2023/01/19 06:11:38;;;;;;;;;;;19.10;32.30;;;;;;3056703;19;4548;-24
2023/01/19 06:12:40;;;;;;;;;;;19.20;32.20;;;;;;3057075;19;4540;-23
2023/01/19 06:13:41;;;;;;;;;;;19.20;32.20;;;;;;3055838;19;4730;-23
2023/01/19 06:14:41;;;;;;;;;;;19.20;32.10;;;;;;3056921;19;4528;-23
2023/01/19 06:15:43;;;;;;;;;;;19.20;32.00;;;;;;3056647;19;4410;-23
2023/01/19 06:16:44;;;;;;;;;;;19.30;32.00;;;;;;3056891;19;4389;-23
2023/01/19 06:17:45;;;;;;;;;;;19.30;32.00;;;;;;3056822;19;4443;-23